Time;durP1;ratioP1;P1;durP2;ratioP2;P2;SDS_P1;SDS_P2;PMS_P1;PMS_P2;Temp;Humidity;BMP_temperature;BMP_pressure;BME280_temperature;BME280_humidity;BME280_pressure;Samples;Min_cycle;Max_cycle;Signal;HPM_P1;HPM_P2
2023/04/24 00:01:31;;;;;;;3.35;1.50;;;;;;;;;;5004605;28;20978;-77
2023/04/24 00:03:59;;;;;;;4.85;2.05;;;;;;;;;;5011001;28;20064;-77
2023/04/24 00:06:32;;;;;;;4.10;2.50;;;;;;;;;;5032140;28;20072;-76
2023/04/24 00:09:00;;;;;;;6.40;2.95;;;;;;;;;;5003001;28;20156;-77
2023/04/24 00:11:26;;;;;;;7.00;2.85;;;;;;;;;;5003603;28;20965;-76
2023/04/24 00:13:53;;;;;;;6.43;3.30;;;;;;;;;;5012371;28;20187;-77
2023/04/24 00:16:19;;;;;;;6.63;3.05;;;;;;;;;;5011300;28;21039;-77
2023/04/24 00:18:47;;;;;;;5.45;2.58;;;;;;;;;;5016371;28;20068;-77
2023/04/24 00:21:15;;;;;;;6.80;3.47;;;;;;;;;;5043333;28;20080;-77
2023/04/24 00:23:42;;;;;;;6.07;3.20;;;;;;;;;;5025559;28;20468;-77
2023/04/24 00:26:08;;;;;;;5.80;3.30;;;;;;;;;;5022109;28;20065;-77
2023/04/24 00:28:34;;;;;;;6.57;3.53;;;;;;;;;;5040441;28;20176;-77
2023/04/24 00:31:01;;;;;;;5.75;3.20;;;;;;;;;;5027400;28;20103;-77
2023/04/24 00:33:27;;;;;;;8.73;3.75;;;;;;;;;;5022278;28;20530;-77
2023/04/24 00:35:54;;;;;;;5.28;3.00;;;;;;;;;;5007908;28;20061;-77
2023/04/24 00:38:21;;;;;;;7.15;3.13;;;;;;;;;;5018435;28;20058;-77
2023/04/24 00:40:49;;;;;;;6.10;3.42;;;;;;;;;;5042435;28;20054;-77
2023/04/24 00:43:16;;;;;;;6.70;2.55;;;;;;;;;;5044516;28;20065;-77
2023/04/24 00:45:43;;;;;;;7.65;2.90;;;;;;;;;;5038733;28;20531;-77
2023/04/24 00:48:09;;;;;;;8.60;3.03;;;;;;;;;;5032982;28;20852;-78
2023/04/24 00:50:36;;;;;;;6.60;3.50;;;;;;;;;;5007859;28;20058;-77
2023/04/24 00:53:02;;;;;;;8.55;3.42;;;;;;;;;;5008227;28;20073;-77
2023/04/24 00:55:30;;;;;;;6.30;3.72;;;;;;;;;;5005609;28;20105;-77
2023/04/24 00:57:56;;;;;;;9.13;3.60;;;;;;;;;;5021687;28;20068;-77
2023/04/24 01:00:23;;;;;;;8.65;3.92;;;;;;;;;;5017194;28;20509;-78
2023/04/24 01:02:51;;;;;;;9.18;3.80;;;;;;;;;;5028932;28;20049;-77
2023/04/24 01:05:18;;;;;;;7.85;3.90;;;;;;;;;;5017777;28;20050;-77
2023/04/24 01:07:47;;;;;;;7.05;3.92;;;;;;;;;;5007789;28;20895;-78
2023/04/24 01:10:14;;;;;;;9.18;4.65;;;;;;;;;;5026498;28;20054;-77
2023/04/24 01:12:40;;;;;;;7.55;4.25;;;;;;;;;;5021710;28;20058;-77
2023/04/24 01:15:07;;;;;;;7.65;4.60;;;;;;;;;;5021283;28;20050;-78
2023/04/24 01:17:33;;;;;;;10.40;4.90;;;;;;;;;;5008199;28;20122;-78
2023/04/24 01:20:00;;;;;;;9.93;4.55;;;;;;;;;;5046263;28;21237;-78
2023/04/24 01:22:26;;;;;;;8.80;5.20;;;;;;;;;;5038631;28;20050;-77
2023/04/24 01:24:53;;;;;;;9.80;5.18;;;;;;;;;;5017215;28;20069;-77
2023/04/24 01:27:20;;;;;;;8.93;4.53;;;;;;;;;;5007495;28;20054;-78
2023/04/24 01:29:49;;;;;;;8.82;4.45;;;;;;;;;;5023765;28;20072;-77
2023/04/24 01:32:15;;;;;;;10.15;4.78;;;;;;;;;;5047072;28;20539;-77
2023/04/24 01:34:42;;;;;;;8.30;4.88;;;;;;;;;;5021401;28;20141;-77
2023/04/24 01:37:08;;;;;;;9.52;5.57;;;;;;;;;;5033933;28;20057;-77
2023/04/24 01:39:35;;;;;;;11.77;5.72;;;;;;;;;;5018889;28;20050;-77
2023/04/24 01:42:02;;;;;;;11.23;5.18;;;;;;;;;;5010320;28;20058;-77
2023/04/24 01:44:28;;;;;;;9.02;4.95;;;;;;;;;;5024960;28;20058;-77
2023/04/24 01:46:55;;;;;;;11.25;4.75;;;;;;;;;;5026656;28;20057;-77
2023/04/24 01:49:21;;;;;;;9.23;4.18;;;;;;;;;;5040227;28;20053;-78
2023/04/24 01:51:48;;;;;;;7.45;4.53;;;;;;;;;;5037872;28;20472;-78
2023/04/24 01:54:15;;;;;;;10.23;4.45;;;;;;;;;;5047722;28;20049;-78
2023/04/24 01:56:42;;;;;;;8.57;4.30;;;;;;;;;;5026467;28;20050;-78
2023/04/24 01:59:12;;;;;;;8.88;4.30;;;;;;;;;;5023899;28;20533;-78
2023/04/24 02:01:38;;;;;;;8.10;4.13;;;;;;;;;;5011693;28;20085;-78
2023/04/24 02:04:05;;;;;;;8.88;4.47;;;;;;;;;;5021803;28;20071;-78
2023/04/24 02:06:32;;;;;;;8.85;4.25;;;;;;;;;;5022892;28;20902;-78
2023/04/24 02:08:59;;;;;;;9.48;4.38;;;;;;;;;;5023187;28;20066;-78
2023/04/24 02:11:26;;;;;;;8.48;4.50;;;;;;;;;;5024270;28;20076;-78
2023/04/24 02:13:52;;;;;;;8.40;4.72;;;;;;;;;;5016282;28;20410;-78
2023/04/24 02:16:19;;;;;;;6.82;3.70;;;;;;;;;;5026041;28;20049;-77
2023/04/24 02:18:45;;;;;;;8.73;3.67;;;;;;;;;;5029828;28;20432;-77
2023/04/24 02:21:11;;;;;;;7.97;4.20;;;;;;;;;;5013231;28;20046;-77
2023/04/24 02:23:38;;;;;;;7.22;3.95;;;;;;;;;;5040028;28;20080;-78
2023/04/24 02:26:04;;;;;;;7.63;3.90;;;;;;;;;;5009645;28;20118;-77
2023/04/24 02:28:31;;;;;;;7.97;4.32;;;;;;;;;;5028181;28;20050;-77
2023/04/24 02:30:58;;;;;;;9.93;4.70;;;;;;;;;;5024209;28;20531;-77
2023/04/24 02:33:24;;;;;;;8.50;4.47;;;;;;;;;;5040593;28;20057;-78
2023/04/24 02:35:51;;;;;;;8.55;4.80;;;;;;;;;;5031648;28;20136;-78
2023/04/24 02:38:17;;;;;;;8.65;4.65;;;;;;;;;;5032716;28;20061;-77
2023/04/24 02:40:44;;;;;;;9.38;5.13;;;;;;;;;;5015314;28;20042;-77
2023/04/24 02:43:10;;;;;;;11.15;4.45;;;;;;;;;;5009022;28;20069;-77
2023/04/24 02:45:37;;;;;;;9.23;4.40;;;;;;;;;;5031180;28;20062;-77
2023/04/24 02:48:04;;;;;;;8.90;4.25;;;;;;;;;;5022216;28;20189;-77
2023/04/24 02:50:31;;;;;;;7.70;4.03;;;;;;;;;;5028339;28;20058;-78
2023/04/24 02:52:58;;;;;;;8.95;3.90;;;;;;;;;;5034128;28;20150;-78
2023/04/24 02:55:24;;;;;;;8.75;3.85;;;;;;;;;;5031269;28;20481;-78
2023/04/24 02:57:51;;;;;;;7.78;3.90;;;;;;;;;;5017508;28;20065;-77
2023/04/24 03:00:17;;;;;;;9.85;4.10;;;;;;;;;;5039382;28;20112;-78
2023/04/24 03:02:45;;;;;;;7.95;4.28;;;;;;;;;;5028563;28;20501;-78
2023/04/24 03:05:12;;;;;;;11.02;4.20;;;;;;;;;;5026903;28;20050;-77
2023/04/24 03:07:38;;;;;;;7.70;4.10;;;;;;;;;;5039713;28;20060;-77
2023/04/24 03:10:05;;;;;;;8.48;4.25;;;;;;;;;;5030604;28;20053;-78
2023/04/24 03:12:31;;;;;;;10.55;4.78;;;;;;;;;;5031964;28;20054;-78
2023/04/24 03:14:58;;;;;;;9.50;4.68;;;;;;;;;;5012954;28;20081;-78
2023/04/24 03:17:24;;;;;;;8.63;4.68;;;;;;;;;;5028324;28;20050;-78
2023/04/24 03:19:50;;;;;;;10.15;5.13;;;;;;;;;;5031094;28;20039;-78
2023/04/24 03:22:17;;;;;;;10.40;5.10;;;;;;;;;;5025301;28;20058;-78
2023/04/24 03:24:43;;;;;;;9.75;5.00;;;;;;;;;;5020690;28;20110;-80
2023/04/24 03:27:09;;;;;;;8.75;4.47;;;;;;;;;;5010581;28;20054;-77
2023/04/24 03:29:36;;;;;;;10.68;4.95;;;;;;;;;;5025226;28;20060;-77
2023/04/24 03:32:02;;;;;;;11.45;5.03;;;;;;;;;;5041911;28;20054;-77
2023/04/24 03:34:29;;;;;;;9.32;5.13;;;;;;;;;;5034274;28;20090;-78
2023/04/24 03:36:55;;;;;;;10.10;4.53;;;;;;;;;;5043288;28;20099;-77
2023/04/24 03:39:21;;;;;;;10.48;4.70;;;;;;;;;;5022547;28;20050;-77
2023/04/24 03:41:48;;;;;;;9.13;4.47;;;;;;;;;;5014759;28;20136;-77
2023/04/24 03:44:14;;;;;;;10.73;4.72;;;;;;;;;;5025580;28;20065;-77
2023/04/24 03:46:41;;;;;;;9.27;4.10;;;;;;;;;;5031885;28;20045;-77
2023/04/24 03:49:07;;;;;;;7.15;3.67;;;;;;;;;;5045956;28;20060;-77
2023/04/24 03:51:33;;;;;;;6.72;3.85;;;;;;;;;;5039012;28;20046;-77
2023/04/24 03:54:00;;;;;;;9.18;3.90;;;;;;;;;;5020256;28;20058;-77
2023/04/24 03:56:26;;;;;;;7.45;3.15;;;;;;;;;;5023317;28;20062;-76
2023/04/24 03:58:52;;;;;;;6.30;3.05;;;;;;;;;;5009125;28;20053;-76
2023/04/24 04:01:20;;;;;;;7.25;2.67;;;;;;;;;;5036916;28;20053;-76
2023/04/24 04:03:47;;;;;;;6.90;2.60;;;;;;;;;;5033895;28;20068;-76
2023/04/24 04:06:14;;;;;;;4.68;2.10;;;;;;;;;;5045956;28;20124;-77
2023/04/24 04:08:40;;;;;;;4.85;1.80;;;;;;;;;;5006606;28;20147;-76
2023/04/24 04:11:07;;;;;;;4.55;1.73;;;;;;;;;;5011184;28;20804;-76
2023/04/24 04:13:33;;;;;;;6.00;2.13;;;;;;;;;;5026208;28;20060;-77
2023/04/24 04:16:00;;;;;;;4.53;1.85;;;;;;;;;;5033551;28;20063;-78
2023/04/24 04:18:26;;;;;;;4.50;1.85;;;;;;;;;;5046502;28;20061;-79
2023/04/24 04:20:53;;;;;;;3.95;1.90;;;;;;;;;;5038311;28;20102;-79
2023/04/24 04:23:19;;;;;;;4.65;2.00;;;;;;;;;;5009513;28;20073;-79
2023/04/24 04:25:46;;;;;;;5.05;2.20;;;;;;;;;;5017203;28;20053;-79
2023/04/24 04:28:13;;;;;;;6.22;2.70;;;;;;;;;;5036479;28;20096;-78
2023/04/24 04:30:39;;;;;;;5.93;2.60;;;;;;;;;;5040426;28;20558;-78
2023/04/24 04:33:06;;;;;;;7.85;3.10;;;;;;;;;;5014286;28;20481;-78
2023/04/24 04:35:32;;;;;;;5.50;2.65;;;;;;;;;;5009058;28;20054;-79
2023/04/24 04:37:59;;;;;;;6.95;3.20;;;;;;;;;;5014671;28;20050;-78
2023/04/24 04:40:26;;;;;;;8.15;3.55;;;;;;;;;;5025264;28;20148;-78
2023/04/24 04:42:53;;;;;;;6.93;3.00;;;;;;;;;;5043953;28;20057;-78
2023/04/24 04:45:20;;;;;;;6.68;3.13;;;;;;;;;;5020941;28;20058;-78
2023/04/24 04:47:47;;;;;;;8.63;3.88;;;;;;;;;;5022010;28;20129;-79
2023/04/24 04:50:13;;;;;;;7.57;3.67;;;;;;;;;;5011505;28;20085;-79
2023/04/24 04:52:39;;;;;;;8.20;3.53;;;;;;;;;;5025028;28;20064;-78
2023/04/24 04:55:06;;;;;;;9.07;4.10;;;;;;;;;;5034056;28;20057;-79
2023/04/24 04:57:32;;;;;;;10.20;3.55;;;;;;;;;;5034847;28;20057;-78
2023/04/24 04:59:59;;;;;;;6.50;3.20;;;;;;;;;;5033464;28;20131;-78
2023/04/24 05:02:25;;;;;;;7.03;3.40;;;;;;;;;;5023290;28;20176;-78
2023/04/24 05:04:52;;;;;;;8.70;3.38;;;;;;;;;;5025594;28;20137;-78
2023/04/24 05:07:18;;;;;;;7.47;3.70;;;;;;;;;;5022069;28;20049;-78
2023/04/24 05:09:45;;;;;;;7.72;3.88;;;;;;;;;;5024397;28;20165;-78
2023/04/24 05:12:11;;;;;;;8.68;3.90;;;;;;;;;;5026992;28;20047;-78
2023/04/24 05:14:37;;;;;;;9.93;3.60;;;;;;;;;;5038023;28;20096;-78
2023/04/24 05:17:04;;;;;;;12.77;4.35;;;;;;;;;;5020087;28;20042;-78
2023/04/24 05:19:32;;;;;;;7.70;3.97;;;;;;;;;;5025555;28;20138;-78
2023/04/24 05:21:59;;;;;;;9.05;3.70;;;;;;;;;;5024824;28;20159;-78
2023/04/24 05:24:25;;;;;;;8.45;4.03;;;;;;;;;;5032497;28;20057;-78
2023/04/24 05:26:51;;;;;;;8.57;4.45;;;;;;;;;;5024720;28;20196;-77
2023/04/24 05:29:19;;;;;;;8.80;3.67;;;;;;;;;;5023866;28;20056;-77
2023/04/24 05:31:45;;;;;;;7.35;3.47;;;;;;;;;;5007054;28;20054;-77
2023/04/24 05:34:11;;;;;;;7.25;3.53;;;;;;;;;;5006895;28;20089;-78
2023/04/24 05:36:38;;;;;;;7.50;3.78;;;;;;;;;;5017115;28;20054;-76
2023/04/24 05:39:05;;;;;;;8.02;3.90;;;;;;;;;;5021902;28;20093;-77
2023/04/24 05:41:33;;;;;;;8.88;3.83;;;;;;;;;;5022820;28;20418;-78
2023/04/24 05:44:00;;;;;;;7.88;3.58;;;;;;;;;;5018276;28;20054;-78
2023/04/24 05:46:26;;;;;;;10.57;3.88;;;;;;;;;;5040810;28;20065;-78
2023/04/24 05:48:52;;;;;;;7.75;3.78;;;;;;;;;;5012677;28;20065;-78
2023/04/24 05:51:19;;;;;;;6.03;2.80;;;;;;;;;;5009870;28;20085;-77
2023/04/24 05:53:45;;;;;;;8.35;3.45;;;;;;;;;;5017300;28;20085;-77
2023/04/24 05:56:12;;;;;;;7.93;3.72;;;;;;;;;;5018490;28;20054;-78
2023/04/24 05:58:39;;;;;;;8.85;3.55;;;;;;;;;;5015531;28;20050;-77
2023/04/24 06:01:05;;;;;;;9.50;3.40;;;;;;;;;;5035562;28;20064;-77
2023/04/24 06:03:32;;;;;;;10.25;3.75;;;;;;;;;;5018231;28;20046;-78
2023/04/24 06:05:59;;;;;;;10.15;3.20;;;;;;;;;;5034898;28;20061;-77
2023/04/24 06:08:26;;;;;;;6.90;2.97;;;;;;;;;;5027897;28;20057;-77
2023/04/24 06:10:52;;;;;;;8.15;3.15;;;;;;;;;;5027024;28;20523;-78
2023/04/24 06:13:18;;;;;;;7.18;2.80;;;;;;;;;;5026655;28;20769;-78
2023/04/24 06:15:45;;;;;;;5.85;2.67;;;;;;;;;;5035119;28;20057;-78
2023/04/24 06:18:12;;;;;;;6.28;2.58;;;;;;;;;;5039247;28;20552;-78
2023/04/24 06:20:39;;;;;;;4.47;1.67;;;;;;;;;;5027645;28;20062;-78
2023/04/24 06:23:05;;;;;;;4.80;1.50;;;;;;;;;;5033357;28;20451;-79
2023/04/24 06:25:32;;;;;;;5.50;1.00;;;;;;;;;;5023955;28;20058;-78
2023/04/24 06:28:02;;;;;;;3.85;1.13;;;;;;;;;;5028590;28;20055;-78
2023/04/24 06:30:28;;;;;;;3.47;1.10;;;;;;;;;;5042876;28;20054;-78
2023/04/24 06:32:55;;;;;;;3.95;1.20;;;;;;;;;;5016761;28;20880;-77
2023/04/24 06:35:31;;;;;;;6.10;1.35;;;;;;;;;;5025488;28;20058;-77
2023/04/24 06:37:57;;;;;;;5.90;1.38;;;;;;;;;;5014683;28;20061;-78
2023/04/24 06:40:24;;;;;;;5.28;1.48;;;;;;;;;;5014487;28;20054;-78
2023/04/24 06:42:50;;;;;;;4.38;1.50;;;;;;;;;;5012648;28;20418;-77
2023/04/24 06:45:17;;;;;;;3.25;1.30;;;;;;;;;;5013596;28;20058;-77
2023/04/24 06:47:43;;;;;;;4.93;2.00;;;;;;;;;;5006981;28;20050;-78
2023/04/24 06:50:10;;;;;;;6.93;2.42;;;;;;;;;;5008310;28;20133;-77
2023/04/24 06:52:36;;;;;;;7.88;2.88;;;;;;;;;;5009178;28;20084;-77
2023/04/24 06:55:03;;;;;;;9.43;3.88;;;;;;;;;;5038335;28;20144;-77
2023/04/24 06:57:29;;;;;;;11.50;4.32;;;;;;;;;;5025886;28;20070;-78
2023/04/24 06:59:56;;;;;;;12.95;5.10;;;;;;;;;;5024371;28;20049;-77
2023/04/24 07:02:22;;;;;;;12.55;6.18;;;;;;;;;;5021590;28;20054;-77
2023/04/24 07:04:49;;;;;;;12.82;6.57;;;;;;;;;;5029516;28;20049;-77
2023/04/24 07:07:16;;;;;;;16.25;6.95;;;;;;;;;;5029009;28;20149;-77
2023/04/24 07:09:44;;;;;;;17.33;6.80;;;;;;;;;;5027494;28;20061;-78
2023/04/24 07:12:10;;;;;;;16.80;7.10;;;;;;;;;;5047737;28;20053;-78
2023/04/24 07:14:37;;;;;;;17.10;7.75;;;;;;;;;;5043251;28;20058;-77
2023/04/24 07:17:05;;;;;;;16.77;7.32;;;;;;;;;;5015950;28;20059;-78
2023/04/24 07:19:40;;;;;;;15.60;7.18;;;;;;;;;;5015644;28;20065;-77
2023/04/24 07:22:08;;;;;;;20.40;7.90;;;;;;;;;;5011832;28;20086;-78
2023/04/24 07:24:34;;;;;;;18.55;7.20;;;;;;;;;;5007738;28;20054;-77
2023/04/24 07:27:03;;;;;;;18.70;8.15;;;;;;;;;;5019432;28;20049;-77
2023/04/24 07:29:30;;;;;;;17.10;7.68;;;;;;;;;;5012400;28;20050;-77
2023/04/24 07:31:56;;;;;;;26.33;8.20;;;;;;;;;;5011479;28;20081;-77
2023/04/24 07:34:23;;;;;;;17.98;8.13;;;;;;;;;;5008016;28;20054;-77
2023/04/24 07:36:49;;;;;;;15.23;8.20;;;;;;;;;;5009662;28;20058;-77
2023/04/24 07:39:16;;;;;;;17.65;8.38;;;;;;;;;;5023705;28;20082;-77
2023/04/24 07:41:42;;;;;;;19.65;7.97;;;;;;;;;;5035362;28;20115;-77
2023/04/24 07:44:08;;;;;;;19.42;8.32;;;;;;;;;;5040523;28;20053;-77
2023/04/24 07:46:35;;;;;;;18.65;8.02;;;;;;;;;;5020440;28;20061;-77
2023/04/24 07:49:02;;;;;;;15.90;7.88;;;;;;;;;;5025933;28;20038;-77
2023/04/24 07:51:39;;;;;;;17.00;7.25;;;;;;;;;;5017034;28;20081;-77
2023/04/24 07:54:05;;;;;;;24.80;8.63;;;;;;;;;;5011667;28;20054;-77
2023/04/24 07:56:32;;;;;;;17.05;7.15;;;;;;;;;;5027984;28;20113;-76
2023/04/24 07:58:59;;;;;;;17.02;7.10;;;;;;;;;;5029220;28;20088;-77
2023/04/24 08:01:26;;;;;;;13.98;7.63;;;;;;;;;;5019487;28;20896;-77
2023/04/24 08:03:52;;;;;;;15.77;7.40;;;;;;;;;;5013322;28;20185;-76
2023/04/24 08:06:22;;;;;;;12.85;7.53;;;;;;;;;;5011239;28;20089;-77
2023/04/24 08:08:49;;;;;;;17.60;7.40;;;;;;;;;;5018151;28;20483;-77
2023/04/24 08:11:15;;;;;;;18.67;8.60;;;;;;;;;;5008582;28;20086;-77
2023/04/24 08:13:42;;;;;;;14.27;7.50;;;;;;;;;;5040845;28;20143;-77
2023/04/24 08:16:08;;;;;;;20.10;7.60;;;;;;;;;;5024295;28;20053;-77
2023/04/24 08:18:35;;;;;;;19.58;6.18;;;;;;;;;;5019907;28;20081;-77
2023/04/24 08:21:02;;;;;;;16.15;5.70;;;;;;;;;;5018472;28;20062;-77
2023/04/24 08:23:29;;;;;;;16.08;5.78;;;;;;;;;;5022786;28;20137;-77
2023/04/24 08:25:57;;;;;;;15.23;4.75;;;;;;;;;;5001332;28;20126;-77
2023/04/24 08:28:23;;;;;;;15.15;3.92;;;;;;;;;;5009231;28;20134;-77
2023/04/24 08:30:54;;;;;;;14.65;4.30;;;;;;;;;;5008990;28;20054;-77
2023/04/24 08:33:23;;;;;;;21.48;4.35;;;;;;;;;;5014626;28;20054;-76
2023/04/24 08:35:49;;;;;;;17.77;4.50;;;;;;;;;;5002917;28;20050;-77
2023/04/24 08:38:16;;;;;;;16.30;3.65;;;;;;;;;;5023703;28;20058;-77
2023/04/24 08:40:43;;;;;;;13.75;3.83;;;;;;;;;;5015283;28;20734;-76
2023/04/24 08:43:10;;;;;;;16.67;3.72;;;;;;;;;;5002580;28;20054;-77
2023/04/24 08:45:36;;;;;;;14.02;3.80;;;;;;;;;;5024904;28;20060;-76
2023/04/24 08:48:04;;;;;;;18.48;4.70;;;;;;;;;;5011752;28;20513;-76
2023/04/24 08:50:35;;;;;;;19.20;4.50;;;;;;;;;;5005517;28;20054;-77
2023/04/24 08:53:01;;;;;;;16.00;3.70;;;;;;;;;;5003148;28;20445;-77
2023/04/24 08:55:30;;;;;;;17.50;3.75;;;;;;;;;;5015320;28;20085;-77
2023/04/24 08:57:57;;;;;;;12.65;2.88;;;;;;;;;;5021434;28;20086;-77
2023/04/24 09:00:23;;;;;;;11.20;2.35;;;;;;;;;;5021967;28;20129;-77
2023/04/24 09:02:50;;;;;;;14.80;3.03;;;;;;;;;;5010233;28;20081;-77
2023/04/24 09:05:18;;;;;;;8.95;2.45;;;;;;;;;;5009183;28;20414;-77
2023/04/24 09:07:49;;;;;;;12.45;2.38;;;;;;;;;;5015747;28;20054;-77
2023/04/24 09:10:15;;;;;;;15.05;2.58;;;;;;;;;;5029091;28;20115;-77
2023/04/24 09:12:42;;;;;;;10.70;2.50;;;;;;;;;;5017780;28;20784;-77
2023/04/24 09:15:09;;;;;;;9.23;2.33;;;;;;;;;;5017687;28;20058;-77
2023/04/24 09:17:35;;;;;;;12.75;2.63;;;;;;;;;;5017108;28;20061;-77
2023/04/24 09:20:05;;;;;;;11.90;2.55;;;;;;;;;;5011248;28;20097;-77
2023/04/24 09:22:31;;;;;;;9.30;2.42;;;;;;;;;;5009940;28;20503;-78
2023/04/24 09:25:02;;;;;;;9.23;2.35;;;;;;;;;;5012953;28;20053;-77
2023/04/24 09:27:29;;;;;;;11.50;2.63;;;;;;;;;;5019344;28;20873;-77
2023/04/24 09:29:56;;;;;;;10.32;2.70;;;;;;;;;;5041501;28;20053;-77
2023/04/24 09:32:24;;;;;;;14.75;2.65;;;;;;;;;;5024345;28;20049;-77
2023/04/24 09:35:07;;;;;;;11.15;2.40;;;;;;;;;;5015284;28;20069;-78
2023/04/24 09:37:42;;;;;;;11.02;2.17;;;;;;;;;;5006770;28;21066;-77
2023/04/24 09:40:08;;;;;;;10.98;2.42;;;;;;;;;;5012205;28;20062;-77
2023/04/24 09:42:35;;;;;;;9.00;2.10;;;;;;;;;;5001019;28;20628;-77
2023/04/24 09:45:02;;;;;;;6.95;1.80;;;;;;;;;;5019821;28;20050;-77
2023/04/24 09:47:40;;;;;;;12.88;2.40;;;;;;;;;;5010551;28;20064;-77
2023/04/24 09:50:10;;;;;;;13.48;2.40;;;;;;;;;;5029624;28;20055;-78
2023/04/24 09:52:39;;;;;;;9.38;2.53;;;;;;;;;;5013767;28;20485;-78
2023/04/24 09:55:10;;;;;;;11.60;2.45;;;;;;;;;;5018655;28;20563;-77
2023/04/24 09:57:46;;;;;;;13.13;2.20;;;;;;;;;;5007910;28;20054;-77
2023/04/24 10:00:18;;;;;;;10.98;2.15;;;;;;;;;;5006102;28;20061;-78
2023/04/24 10:02:45;;;;;;;10.93;2.53;;;;;;;;;;5003277;28;20053;-78
2023/04/24 10:05:11;;;;;;;11.40;2.08;;;;;;;;;;5017393;28;20058;-77
2023/04/24 10:07:40;;;;;;;6.57;1.90;;;;;;;;;;5006940;28;20054;-78
2023/04/24 10:10:07;;;;;;;6.75;1.83;;;;;;;;;;5013017;28;20092;-78
2023/04/24 10:12:33;;;;;;;9.80;2.33;;;;;;;;;;5013843;28;20109;-78
2023/04/24 10:15:01;;;;;;;10.60;2.67;;;;;;;;;;5011270;28;20065;-78
2023/04/24 10:17:28;;;;;;;10.68;2.08;;;;;;;;;;5008093;28;20053;-78
2023/04/24 10:19:54;;;;;;;9.18;2.00;;;;;;;;;;5001625;28;20055;-78
2023/04/24 10:22:21;;;;;;;8.02;1.80;;;;;;;;;;5006682;28;20050;-78
2023/04/24 10:24:48;;;;;;;9.88;2.15;;;;;;;;;;5018654;28;20064;-77
2023/04/24 10:27:15;;;;;;;8.70;2.35;;;;;;;;;;5014047;28;20053;-79
2023/04/24 10:29:43;;;;;;;8.57;1.65;;;;;;;;;;5023259;28;20085;-78
2023/04/24 10:32:09;;;;;;;9.68;1.92;;;;;;;;;;5036410;28;20103;-79
2023/04/24 10:34:36;;;;;;;7.20;1.40;;;;;;;;;;5021181;28;20057;-78
2023/04/24 10:37:02;;;;;;;6.50;1.40;;;;;;;;;;5016567;28;20057;-78
2023/04/24 10:39:30;;;;;;;6.88;1.48;;;;;;;;;;5003637;28;20085;-79
2023/04/24 10:41:57;;;;;;;4.05;1.00;;;;;;;;;;5010967;28;20052;-79
2023/04/24 10:44:24;;;;;;;6.82;0.90;;;;;;;;;;5021636;28;20061;-79
2023/04/24 10:46:55;;;;;;;5.05;0.93;;;;;;;;;;5020643;28;20057;-79
2023/04/24 10:49:21;;;;;;;;;;;;;;;;;;5020768;28;20054;-79
2023/04/24 10:51:52;;;;;;;6.63;0.98;;;;;;;;;;5016753;28;42559;-79
2023/04/24 10:54:35;;;;;;;6.38;0.80;;;;;;;;;;5029797;28;20054;-77
2023/04/24 10:57:20;;;;;;;4.43;0.82;;;;;;;;;;5013722;28;20054;-79
2023/04/24 10:59:48;;;;;;;1.95;0.65;;;;;;;;;;5039618;28;20101;-78
2023/04/24 11:02:15;;;;;;;3.28;0.80;;;;;;;;;;5018573;28;20046;-78
2023/04/24 11:04:47;;;;;;;4.60;0.90;;;;;;;;;;5030623;28;20062;-78
2023/04/24 11:07:14;;;;;;;4.43;0.90;;;;;;;;;;5021342;28;20108;-78
2023/04/24 11:09:42;;;;;;;9.60;1.30;;;;;;;;;;5021026;28;20589;-78
2023/04/24 11:12:14;;;;;;;4.28;1.05;;;;;;;;;;5027168;28;20093;-78
2023/04/24 11:14:56;;;;;;;5.07;0.95;;;;;;;;;;5025917;28;20060;-78
2023/04/24 11:17:29;;;;;;;5.35;1.00;;;;;;;;;;5029587;28;20924;-78
2023/04/24 11:20:00;;;;;;;5.75;0.88;;;;;;;;;;5019957;28;20622;-79
2023/04/24 11:22:40;;;;;;;6.78;1.20;;;;;;;;;;5011585;28;20168;-78
2023/04/24 11:25:11;;;;;;;6.93;1.45;;;;;;;;;;5022871;28;20583;-78
2023/04/24 11:27:38;;;;;;;;;;;;;;;;;;5012802;28;20124;-78
2023/04/24 11:30:04;;;;;;;4.72;1.00;;;;;;;;;;5016099;28;48192;-78
2023/04/24 11:32:34;;;;;;;4.70;1.10;;;;;;;;;;5014775;28;20829;-78
2023/04/24 11:35:01;;;;;;;3.67;1.00;;;;;;;;;;5014971;28;20089;-78
2023/04/24 11:37:28;;;;;;;4.57;1.02;;;;;;;;;;5011567;28;20058;-78
2023/04/24 11:39:56;;;;;;;5.55;1.20;;;;;;;;;;5019462;28;20064;-78
2023/04/24 11:42:25;;;;;;;5.65;1.00;;;;;;;;;;5025931;28;20061;-78
2023/04/24 11:44:52;;;;;;;3.40;1.13;;;;;;;;;;5030216;28;20125;-78
2023/04/24 11:47:18;;;;;;;6.60;1.33;;;;;;;;;;5012429;28;20061;-78
2023/04/24 11:49:46;;;;;;;7.03;1.08;;;;;;;;;;5015936;28;20059;-78
2023/04/24 11:52:15;;;;;;;7.55;1.10;;;;;;;;;;5019846;28;20054;-78
2023/04/24 11:54:49;;;;;;;8.38;1.27;;;;;;;;;;5021659;28;20272;-79
2023/04/24 11:57:16;;;;;;;4.30;0.95;;;;;;;;;;5021863;28;20054;-78
2023/04/24 11:59:42;;;;;;;3.90;0.90;;;;;;;;;;5020321;28;20097;-78
2023/04/24 12:02:19;;;;;;;5.57;0.77;;;;;;;;;;5025427;28;20058;-79
2023/04/24 12:04:46;;;;;;;2.17;0.70;;;;;;;;;;5023360;28;20057;-79
2023/04/24 12:07:13;;;;;;;3.65;0.70;;;;;;;;;;5024329;28;20054;-78
2023/04/24 12:09:43;;;;;;;2.45;0.70;;;;;;;;;;5013220;28;20352;-78
2023/04/24 12:12:13;;;;;;;2.95;0.60;;;;;;;;;;5021842;28;20807;-79
2023/04/24 12:14:57;;;;;;;1.90;0.60;;;;;;;;;;5021489;28;20808;-79
2023/04/24 12:17:25;;;;;;;4.38;1.00;;;;;;;;;;5004144;28;20157;-79
2023/04/24 12:20:02;;;;;;;5.97;1.00;;;;;;;;;;5021684;28;20061;-79
2023/04/24 12:22:43;;;;;;;7.22;1.10;;;;;;;;;;5021432;28;20057;-79
2023/04/24 12:25:10;;;;;;;4.55;0.90;;;;;;;;;;5020711;28;20081;-78
2023/04/24 12:27:36;;;;;;;6.18;1.42;;;;;;;;;;5014126;28;20062;-79
2023/04/24 12:30:04;;;;;;;6.70;1.40;;;;;;;;;;5014388;28;20065;-78
2023/04/24 12:32:31;;;;;;;5.40;1.00;;;;;;;;;;5014952;28;20062;-78
2023/04/24 12:34:58;;;;;;;5.20;0.95;;;;;;;;;;5016941;28;20796;-79
2023/04/24 12:37:25;;;;;;;5.22;1.20;;;;;;;;;;5006061;28;20221;-79
2023/04/24 12:40:18;;;;;;;8.30;1.50;;;;;;;;;;5013299;28;20698;-79
2023/04/24 12:42:45;;;;;;;8.15;1.20;;;;;;;;;;5020621;28;20074;-79
2023/04/24 12:45:12;;;;;;;5.00;0.98;;;;;;;;;;5019329;28;20142;-78
2023/04/24 12:47:41;;;;;;;5.32;1.20;;;;;;;;;;5021326;28;20161;-78
2023/04/24 12:50:09;;;;;;;5.68;1.38;;;;;;;;;;5026930;28;20060;-78
2023/04/24 12:52:36;;;;;;;6.43;1.27;;;;;;;;;;5007796;28;20054;-78
2023/04/24 12:55:02;;;;;;;4.43;1.27;;;;;;;;;;5014999;28;20149;-78
2023/04/24 12:57:29;;;;;;;8.40;1.30;;;;;;;;;;5015282;28;20433;-78
2023/04/24 12:59:57;;;;;;;6.50;1.42;;;;;;;;;;5014410;28;20145;-78
2023/04/24 13:02:24;;;;;;;8.40;1.60;;;;;;;;;;5023587;28;20058;-78
2023/04/24 13:04:51;;;;;;;8.13;1.67;;;;;;;;;;5012665;28;20050;-78
2023/04/24 13:07:17;;;;;;;6.00;1.65;;;;;;;;;;5017981;28;20061;-78
2023/04/24 13:09:44;;;;;;;7.55;1.25;;;;;;;;;;5013343;28;20108;-77
2023/04/24 13:12:11;;;;;;;11.45;2.20;;;;;;;;;;5006289;28;20061;-78
2023/04/24 13:14:37;;;;;;;8.30;1.38;;;;;;;;;;5015788;28;20060;-78
2023/04/24 13:17:04;;;;;;;9.75;1.63;;;;;;;;;;5012825;28;20070;-78
2023/04/24 13:19:35;;;;;;;8.48;1.85;;;;;;;;;;5020245;28;20061;-78
2023/04/24 13:22:02;;;;;;;7.65;1.70;;;;;;;;;;5030717;28;20137;-78
2023/04/24 13:24:29;;;;;;;7.43;1.60;;;;;;;;;;5023509;28;20050;-78
2023/04/24 13:26:56;;;;;;;6.72;1.80;;;;;;;;;;5021749;28;20133;-78
2023/04/24 13:29:23;;;;;;;7.85;1.73;;;;;;;;;;5012839;28;20137;-78
2023/04/24 13:31:54;;;;;;;8.02;1.60;;;;;;;;;;5019723;28;20058;-78
2023/04/24 13:34:21;;;;;;;10.73;2.10;;;;;;;;;;5015299;28;20468;-78
2023/04/24 13:36:48;;;;;;;15.18;2.10;;;;;;;;;;5038732;28;20062;-78
2023/04/24 13:39:17;;;;;;;8.45;1.70;;;;;;;;;;5019990;28;20064;-79
2023/04/24 13:41:44;;;;;;;14.48;2.67;;;;;;;;;;5043921;28;20054;-78
2023/04/24 13:44:10;;;;;;;14.35;2.25;;;;;;;;;;5016777;28;20212;-77
2023/04/24 13:46:37;;;;;;;13.70;1.90;;;;;;;;;;5027807;28;20065;-76
2023/04/24 13:49:04;;;;;;;10.82;2.00;;;;;;;;;;5010910;28;20058;-77
2023/04/24 13:51:30;;;;;;;8.68;2.05;;;;;;;;;;5020154;28;20049;-77
2023/04/24 13:53:56;;;;;;;10.48;2.20;;;;;;;;;;5014780;28;20065;-76
2023/04/24 13:56:23;;;;;;;12.35;1.90;;;;;;;;;;5015970;28;20538;-78
2023/04/24 13:58:49;;;;;;;9.25;2.03;;;;;;;;;;5021503;28;20919;-77
2023/04/24 14:01:16;;;;;;;11.57;2.15;;;;;;;;;;5023728;28;20054;-78
2023/04/24 14:03:45;;;;;;;6.22;1.95;;;;;;;;;;5018023;28;20536;-78
2023/04/24 14:06:12;;;;;;;8.23;1.85;;;;;;;;;;5014116;28;20054;-78
2023/04/24 14:08:38;;;;;;;10.63;1.77;;;;;;;;;;5015966;28;20054;-77
2023/04/24 14:11:04;;;;;;;8.18;1.90;;;;;;;;;;5022934;28;20157;-77
2023/04/24 14:13:31;;;;;;;9.15;1.85;;;;;;;;;;5028831;28;20050;-77
2023/04/24 14:15:57;;;;;;;9.25;2.10;;;;;;;;;;5016989;28;20054;-77
2023/04/24 14:18:24;;;;;;;10.60;1.85;;;;;;;;;;5019575;28;20499;-77
2023/04/24 14:20:50;;;;;;;6.75;1.92;;;;;;;;;;5022701;28;20060;-77
2023/04/24 14:23:16;;;;;;;13.38;2.28;;;;;;;;;;5021285;28;20153;-78
2023/04/24 14:25:44;;;;;;;10.35;2.33;;;;;;;;;;5018796;28;20046;-77
2023/04/24 14:28:10;;;;;;;10.02;2.53;;;;;;;;;;5022366;28;20830;-77
2023/04/24 14:30:37;;;;;;;8.88;2.05;;;;;;;;;;5044876;28;20943;-77
2023/04/24 14:33:03;;;;;;;8.73;2.40;;;;;;;;;;5014317;28;20055;-77
2023/04/24 14:35:32;;;;;;;11.00;2.25;;;;;;;;;;5023377;28;20136;-77
2023/04/24 14:37:59;;;;;;;10.60;2.35;;;;;;;;;;5029421;28;20054;-76
2023/04/24 14:40:25;;;;;;;6.65;2.10;;;;;;;;;;5017609;28;20473;-77
2023/04/24 14:43:12;;;;;;;9.32;2.40;;;;;;;;;;5029459;28;20540;-79